Time;durP1;ratioP1;P1;durP2;ratioP2;P2;SDS_P1;SDS_P2;PMS_P1;PMS_P2;Temp;Humidity;BMP_temperature;BMP_pressure;BME280_temperature;BME280_humidity;BME280_pressure;Samples;Min_cycle;Max_cycle;Signal;HPM_P1;HPM_P2
2022/03/14 00:00:30;;;;;;;9.80;7.40;;;;;;-10253.80;;;;106347;1288;64994;-48
2022/03/14 00:03:06;;;;;;;10.00;7.20;;;;;;-10378.10;;;;106314;1287;64910;-47
2022/03/14 00:05:33;;;;;;;10.20;6.80;;;;;;-10129.49;;;;106247;1288;64988;-46
2022/03/14 00:08:01;;;;;;;9.40;6.90;;;;;;-10253.80;;;;106397;1285;64758;-46
2022/03/14 00:10:28;;;;;;;9.80;7.10;;;;;;-10502.40;;;;106134;1285;64909;-49
2022/03/14 00:13:00;;;;;;;10.60;7.70;;;;;;-10129.49;;;;106461;1284;63539;-47
2022/03/14 00:15:33;;;;;;;9.30;6.80;;;;;;-10129.49;;;;106313;1288;65637;-50
2022/03/14 00:18:01;;;;;;;10.20;7.40;;;;;;-10253.80;;;;106269;1287;64934;-34
2022/03/14 00:20:28;;;;;;;9.80;6.40;;;;;;-10005.19;;;;106382;1285;64889;-32
2022/03/14 00:22:59;;;;;;;11.80;7.80;;;;;;-10129.49;;;;106353;1285;64907;-33
2022/03/14 00:25:27;;;;;;;9.20;6.90;;;;;;-10005.19;;;;106217;1287;65012;-34
2022/03/14 00:27:54;;;;;;;9.50;7.40;;;;;;-10253.80;;;;105954;1288;64900;-33
2022/03/14 00:30:22;;;;;;;10.50;7.30;;;;;;-10502.40;;;;106194;1287;64883;-33
2022/03/14 00:32:49;;;;;;;8.90;6.80;;;;;;-10253.80;;;;106207;1288;64899;-32
2022/03/14 00:35:17;;;;;;;9.70;6.90;;;;;;-10253.80;;;;106168;1287;64967;-33
2022/03/14 00:37:44;;;;;;;9.40;7.30;;;;;;-10253.80;;;;106271;1287;64771;-49
2022/03/14 00:40:12;;;;;;;9.90;7.10;;;;;;-10005.19;;;;106343;1287;64894;-49
2022/03/14 00:42:39;;;;;;;9.00;7.30;;;;;;-10129.49;;;;106311;1287;64785;-33
2022/03/14 00:45:08;;;;;;;8.70;6.70;;;;;;-10005.19;;;;106220;1288;64900;-33
2022/03/14 00:47:35;;;;;;;9.30;6.40;;;;;;-10005.19;;;;106364;1285;64877;-33
2022/03/14 00:50:03;;;;;;;10.70;7.90;;;;;;-10378.10;;;;106383;1285;64773;-33
2022/03/14 00:52:31;;;;;;;10.70;7.70;;;;;;-10129.49;;;;106008;1288;64926;-34
2022/03/14 00:54:58;;;;;;;9.50;7.30;;;;;;-10253.80;;;;105947;1287;64736;-34
2022/03/14 00:57:27;;;;;;;9.80;7.30;;;;;;-10129.49;;;;106293;1287;64912;-47
2022/03/14 00:59:54;;;;;;;9.90;6.50;;;;;;-10129.49;;;;106342;1288;64804;-48
2022/03/14 01:02:21;;;;;;;8.90;6.90;;;;;;-10129.49;;;;106330;1287;64897;-33
2022/03/14 01:04:48;;;;;;;9.40;6.80;;;;;;-10253.80;;;;106243;1287;64928;-34
2022/03/14 01:07:16;;;;;;;9.90;7.20;;;;;;-10253.80;;;;106248;1287;64630;-46
2022/03/14 01:09:43;;;;;;;9.70;6.90;;;;;;-10378.10;;;;106096;1288;64760;-47
2022/03/14 01:12:10;;;;;;;8.60;6.40;;;;;;-10253.80;;;;106187;1285;65006;-47
2022/03/14 01:14:38;;;;;;;9.30;6.50;;;;;;-10129.49;;;;106357;1287;64908;-48
2022/03/14 01:17:05;;;;;;;9.30;7.10;;;;;;-10253.80;;;;106164;1287;64945;-46
2022/03/14 01:19:32;;;;;;;10.90;7.70;;;;;;-10005.19;;;;106440;1285;64795;-46
2022/03/14 01:21:59;;;;;;;9.20;6.70;;;;;;-10129.49;;;;106420;1285;64926;-33
2022/03/14 01:24:27;;;;;;;9.30;6.30;;;;;;-10378.10;;;;106234;1288;64881;-32
2022/03/14 01:26:54;;;;;;;9.30;6.50;;;;;;-10129.49;;;;106384;1285;64777;-33
2022/03/14 01:29:22;;;;;;;9.70;6.70;;;;;;-10129.49;;;;106063;1286;64844;-34
2022/03/14 01:31:51;;;;;;;10.10;6.60;;;;;;-10253.80;;;;106249;1287;64892;-33
2022/03/14 01:34:19;;;;;;;9.50;6.80;;;;;;-10253.80;;;;106356;1285;64775;-34
2022/03/14 01:36:46;;;;;;;9.60;7.20;;;;;;-10129.49;;;;106235;1288;64768;-32
2022/03/14 01:39:13;;;;;;;9.10;6.30;;;;;;-10005.19;;;;106081;1285;64972;-32
2022/03/14 01:41:40;;;;;;;9.50;6.90;;;;;;-10253.80;;;;106360;1285;64759;-34
2022/03/14 01:44:08;;;;;;;9.30;6.70;;;;;;-10129.49;;;;106220;1287;64901;-33
2022/03/14 01:46:36;;;;;;;9.60;6.70;;;;;;-10005.19;;;;106211;1287;64801;-43
2022/03/14 01:49:04;;;;;;;9.60;6.60;;;;;;-10005.19;;;;106307;1287;64749;-48
2022/03/14 01:51:34;;;;;;;10.40;6.60;;;;;;-10129.49;;;;106287;1287;64803;-47
2022/03/14 01:54:02;;;;;;;8.90;6.40;;;;;;-10129.49;;;;106432;1285;64876;-49
2022/03/14 01:56:30;;;;;;;9.80;6.30;;;;;;-10129.49;;;;106026;1287;64817;-51
2022/03/14 01:58:57;;;;;;;9.20;6.90;;;;;;-10253.80;;;;106346;1285;64857;-34
2022/03/14 02:01:25;;;;;;;10.10;6.90;;;;;;-10129.49;;;;106054;1286;64779;-33
2022/03/14 02:03:52;;;;;;;9.30;6.30;;;;;;-10253.80;;;;106310;1288;64912;-50
2022/03/14 02:06:19;;;;;;;9.20;6.60;;;;;;-10129.49;;;;106311;1287;64906;-50
2022/03/14 02:08:47;;;;;;;9.80;6.60;;;;;;-10378.10;;;;106162;1287;64896;-45
2022/03/14 02:11:14;;;;;;;9.70;6.50;;;;;;-10005.19;;;;106313;1288;64904;-46
2022/03/14 02:13:41;;;;;;;9.50;6.20;;;;;;-10253.80;;;;106294;1287;64880;-45
2022/03/14 02:16:08;;;;;;;9.60;6.90;;;;;;-10005.19;;;;106369;1287;64750;-47
2022/03/14 02:18:35;;;;;;;9.60;7.10;;;;;;-10253.80;;;;106238;1288;64819;-33
2022/03/14 02:21:03;;;;;;;9.30;6.50;;;;;;-10129.49;;;;106220;1288;64791;-33
2022/03/14 02:23:30;;;;;;;9.00;6.70;;;;;;-10378.10;;;;106369;1285;64881;-34
2022/03/14 02:25:58;;;;;;;8.90;6.60;;;;;;-10129.49;;;;105933;1288;64798;-33
2022/03/14 02:28:26;;;;;;;9.30;6.60;;;;;;-10005.19;;;;106262;1288;64872;-33
2022/03/14 02:30:53;;;;;;;9.50;6.50;;;;;;-10129.49;;;;106259;1287;64767;-33
2022/03/14 02:33:21;;;;;;;9.50;7.10;;;;;;-10129.49;;;;106217;1287;64906;-46
2022/03/14 02:35:49;;;;;;;10.00;6.80;;;;;;-10253.80;;;;106232;1287;64895;-46
2022/03/14 02:38:19;;;;;;;9.70;6.00;;;;;;-10129.49;;;;106367;1285;64878;-49
2022/03/14 02:40:48;;;;;;;8.40;6.10;;;;;;-10129.49;;;;106267;1288;64784;-49
2022/03/14 02:43:20;;;;;;;9.30;6.20;;;;;;-10129.49;;;;106078;1287;64885;-45
2022/03/14 02:45:47;;;;;;;10.20;6.80;;;;;;-10378.10;;;;106055;1286;64888;-46
2022/03/14 02:48:16;;;;;;;9.80;6.70;;;;;;-10005.19;;;;106235;1287;64775;-48
2022/03/14 02:50:44;;;;;;;8.20;6.30;;;;;;-10005.19;;;;106257;1288;64785;-47
2022/03/14 02:53:13;;;;;;;9.00;6.40;;;;;;-10005.19;;;;106034;1288;64703;-32
2022/03/14 02:55:41;;;;;;;8.80;6.00;;;;;;-10378.10;;;;105953;1288;64919;-36
2022/03/14 02:58:09;;;;;;;8.70;6.60;;;;;;-10129.49;;;;106224;1288;64809;-34
2022/03/14 03:00:36;;;;;;;8.80;5.80;;;;;;-10378.10;;;;106202;1287;64804;-32
2022/03/14 03:03:10;;;;;;;10.00;6.70;;;;;;-10129.49;;;;106152;1285;64902;-48
2022/03/14 03:05:43;;;;;;;;;;;;;;-10129.49;;;;106431;1285;64770;-46
2022/03/14 03:08:11;;;;;;;8.50;6.50;;;;;;-10253.80;;;;106327;1287;65619;-46
2022/03/14 03:10:40;;;;;;;8.30;5.80;;;;;;-10005.19;;;;106446;1286;64784;-45
2022/03/14 03:13:07;;;;;;;9.20;6.20;;;;;;-10129.49;;;;105998;1288;64875;-33
2022/03/14 03:15:35;;;;;;;8.90;6.50;;;;;;-10253.80;;;;105933;1288;64938;-33
2022/03/14 03:18:02;;;;;;;9.10;6.70;;;;;;-10129.49;;;;106261;1288;64686;-32
2022/03/14 03:20:30;;;;;;;9.20;6.20;;;;;;-10129.49;;;;106242;1287;64794;-32
2022/03/14 03:22:57;;;;;;;8.80;6.60;;;;;;-10253.80;;;;106260;1287;64832;-45
2022/03/14 03:25:24;;;;;;;9.40;6.60;;;;;;-10129.49;;;;106301;1287;64892;-47
2022/03/14 03:27:51;;;;;;;9.90;7.10;;;;;;-10005.19;;;;106071;1287;64878;-32
2022/03/14 03:30:19;;;;;;;9.00;6.70;;;;;;-10005.19;;;;106247;1287;64862;-33
2022/03/14 03:32:46;;;;;;;9.90;6.60;;;;;;-10129.49;;;;106277;1288;63614;-49
2022/03/14 03:35:13;;;;;;;8.30;6.00;;;;;;-10378.10;;;;106312;1287;64887;-47
2022/03/14 03:37:40;;;;;;;9.00;6.90;;;;;;-10378.10;;;;106363;1285;65381;-34
2022/03/14 03:40:09;;;;;;;9.00;6.30;;;;;;-10129.49;;;;106215;1287;64888;-33
2022/03/14 03:42:36;;;;;;;8.60;6.40;;;;;;-10253.80;;;;106397;1285;64779;-46
2022/03/14 03:45:05;;;;;;;9.90;6.70;;;;;;-10005.19;;;;106150;1287;64992;-46
2022/03/14 03:47:32;;;;;;;8.80;6.20;;;;;;-10005.19;;;;106281;1287;64922;-46
2022/03/14 03:50:00;;;;;;;9.50;6.70;;;;;;-10129.49;;;;106285;1286;64747;-46
2022/03/14 03:52:27;;;;;;;8.60;6.70;;;;;;-10129.49;;;;106263;1288;65039;-33
2022/03/14 03:54:55;;;;;;;8.60;6.20;;;;;;-10005.19;;;;106221;1287;64868;-37
2022/03/14 03:57:22;;;;;;;7.70;6.30;;;;;;-10253.80;;;;106247;1287;64882;-33
2022/03/14 03:59:49;;;;;;;8.50;6.00;;;;;;-10129.49;;;;106213;1287;65015;-33
2022/03/14 04:02:19;;;;;;;9.20;6.40;;;;;;-10253.80;;;;106257;1287;64996;-34
2022/03/14 04:04:50;;;;;;;8.50;5.80;;;;;;-10253.80;;;;106336;1285;64789;-32
2022/03/14 04:07:19;;;;;;;8.50;6.10;;;;;;-10129.49;;;;106304;1287;64880;-33
2022/03/14 04:09:47;;;;;;;8.60;6.20;;;;;;-10253.80;;;;106256;1287;64812;-33
2022/03/14 04:12:14;;;;;;;7.90;5.80;;;;;;-10129.49;;;;106241;1287;64888;-48
2022/03/14 04:14:41;;;;;;;9.20;6.20;;;;;;-10253.80;;;;106082;1287;64927;-46
2022/03/14 04:17:08;;;;;;;8.60;6.30;;;;;;-10129.49;;;;106338;1285;64785;-48
2022/03/14 04:19:37;;;;;;;8.60;5.90;;;;;;-10005.19;;;;106280;1287;65715;-46
2022/03/14 04:22:04;;;;;;;9.60;5.70;;;;;;-10005.19;;;;106295;1287;65835;-45
2022/03/14 04:24:31;;;;;;;9.30;6.00;;;;;;-10378.10;;;;106298;1287;64776;-50
2022/03/14 04:26:59;;;;;;;8.50;5.90;;;;;;-10005.19;;;;105971;1288;377757;-34
2022/03/14 04:29:27;;;;;;;7.80;5.70;;;;;;-10253.80;;;;106314;1286;65335;-34
2022/03/14 04:31:55;;;;;;;9.40;5.90;;;;;;-10129.49;;;;106327;1287;64690;-34
2022/03/14 04:34:22;;;;;;;7.70;5.40;;;;;;-10005.19;;;;105970;1288;64923;-38
2022/03/14 04:36:50;;;;;;;7.80;5.70;;;;;;-10253.80;;;;106239;1288;64664;-33
2022/03/14 04:39:18;;;;;;;8.80;6.20;;;;;;-10253.80;;;;106076;1287;64848;-40
2022/03/14 04:41:45;;;;;;;8.90;6.30;;;;;;-10253.80;;;;106349;1285;64782;-44
2022/03/14 04:44:13;;;;;;;9.30;5.70;;;;;;-10005.19;;;;106309;1285;64916;-31
2022/03/14 04:46:40;;;;;;;8.50;6.10;;;;;;-10378.10;;;;106209;1287;64783;-46
2022/03/14 04:49:08;;;;;;;9.40;6.10;;;;;;-10005.19;;;;106255;1287;64849;-47
2022/03/14 04:51:36;;;;;;;7.30;5.40;;;;;;-10129.49;;;;105953;1288;64798;-34
2022/03/14 04:54:04;;;;;;;8.60;5.60;;;;;;-10129.49;;;;106017;1287;64900;-34
2022/03/14 04:56:31;;;;;;;7.60;5.90;;;;;;-10502.40;;;;106237;1285;64811;-33
2022/03/14 04:58:59;;;;;;;8.70;5.80;;;;;;-10253.80;;;;106005;1288;64946;-49
2022/03/14 05:01:26;;;;;;;8.70;6.10;;;;;;-10253.80;;;;106284;1285;64859;-45
2022/03/14 05:03:54;;;;;;;8.30;6.40;;;;;;-10378.10;;;;106210;1288;64931;-33
2022/03/14 05:06:24;;;;;;;8.40;6.00;;;;;;-10129.49;;;;105938;1288;65483;-34
2022/03/14 05:08:52;;;;;;;9.10;6.40;;;;;;-10129.49;;;;106218;1287;64919;-50
2022/03/14 05:11:19;;;;;;;8.30;5.90;;;;;;-10005.19;;;;105832;1290;65031;-55
2022/03/14 05:13:47;;;;;;;8.60;6.00;;;;;;-10129.49;;;;105914;1287;64791;-33
2022/03/14 05:16:14;;;;;;;7.80;5.20;;;;;;-10129.49;;;;106194;1287;64741;-35
2022/03/14 05:18:41;;;;;;;7.60;6.00;;;;;;-10129.49;;;;106220;1287;64749;-47
2022/03/14 05:21:09;;;;;;;7.70;5.60;;;;;;-10005.19;;;;106238;1287;64889;-48
2022/03/14 05:23:36;;;;;;;8.00;5.60;;;;;;-10129.49;;;;105926;1288;64783;-47
2022/03/14 05:26:04;;;;;;;8.30;5.90;;;;;;-10129.49;;;;106210;1287;64980;-48
2022/03/14 05:28:32;;;;;;;7.10;5.50;;;;;;-10129.49;;;;106220;1287;64810;-45
2022/03/14 05:30:59;;;;;;;8.00;5.60;;;;;;-10129.49;;;;106301;1286;64878;-45
2022/03/14 05:33:27;;;;;;;8.00;5.50;;;;;;-10129.49;;;;106027;1287;64763;-34
2022/03/14 05:35:54;;;;;;;8.50;6.20;;;;;;-10253.80;;;;105994;1288;67638;-43
2022/03/14 05:38:22;;;;;;;8.70;6.20;;;;;;-10129.49;;;;106246;1287;64833;-41
2022/03/14 05:40:51;;;;;;;8.20;6.00;;;;;;-10253.80;;;;106245;1287;64915;-34
2022/03/14 05:43:18;;;;;;;8.60;6.10;;;;;;-10378.10;;;;106235;1287;64852;-37
2022/03/14 05:45:46;;;;;;;8.40;5.90;;;;;;-10253.80;;;;106229;1287;64852;-34
2022/03/14 05:48:13;;;;;;;8.60;5.70;;;;;;-10253.80;;;;106217;1287;64883;-47
2022/03/14 05:50:40;;;;;;;8.40;6.50;;;;;;-10378.10;;;;106224;1287;64888;-48
2022/03/14 05:53:08;;;;;;;8.50;6.30;;;;;;-10129.49;;;;106012;1287;64920;-46
2022/03/14 05:55:35;;;;;;;8.10;6.20;;;;;;-10129.49;;;;106261;1287;64854;-46
2022/03/14 05:58:03;;;;;;;10.10;6.40;;;;;;-10253.80;;;;106317;1286;64747;-33
2022/03/14 06:00:31;;;;;;;9.20;6.40;;;;;;-10005.19;;;;106255;1287;64785;-46
2022/03/14 06:02:58;;;;;;;9.90;6.50;;;;;;-10129.49;;;;106265;1286;64901;-49
2022/03/14 06:05:25;;;;;;;9.00;5.90;;;;;;-10253.80;;;;106229;1287;64790;-46
2022/03/14 06:07:52;;;;;;;9.90;6.90;;;;;;-10253.80;;;;106211;1287;64755;-34
2022/03/14 06:10:20;;;;;;;9.20;6.70;;;;;;-10129.49;;;;106298;1287;64909;-46
2022/03/14 06:12:47;;;;;;;9.50;7.10;;;;;;-10005.19;;;;106077;1287;65081;-46
2022/03/14 06:15:16;;;;;;;8.80;6.10;;;;;;-10129.49;;;;106299;1287;64901;-46
2022/03/14 06:17:44;;;;;;;9.30;6.60;;;;;;-10253.80;;;;106212;1287;64777;-33
2022/03/14 06:20:14;;;;;;;10.00;6.90;;;;;;-10005.19;;;;106281;1287;64784;-39
2022/03/14 06:22:46;;;;;;;9.30;6.60;;;;;;-10129.49;;;;106350;1286;64922;-48
2022/03/14 06:25:15;;;;;;;9.90;7.20;;;;;;-10253.80;;;;106242;1287;64889;-47
2022/03/14 06:27:42;;;;;;;9.90;6.70;;;;;;-10129.49;;;;106296;1287;64942;-34
2022/03/14 06:30:11;;;;;;;9.20;6.50;;;;;;-10129.49;;;;105954;1287;64866;-30
2022/03/14 06:32:41;;;;;;;9.30;6.40;;;;;;-10129.49;;;;106243;1287;64800;-46
2022/03/14 06:35:15;;;;;;;8.90;6.70;;;;;;-10005.19;;;;106247;1287;64900;-47
2022/03/14 06:37:45;;;;;;;8.10;6.00;;;;;;-10253.80;;;;106257;1287;66463;-46
2022/03/14 06:40:13;;;;;;;9.10;6.40;;;;;;-10378.10;;;;106290;1285;64906;-46
2022/03/14 06:42:48;;;;;;;8.60;5.80;;;;;;-10129.49;;;;106260;1287;64743;-33
2022/03/14 06:45:22;;;;;;;9.50;6.80;;;;;;-10253.80;;;;106215;1287;64916;-33
2022/03/14 06:47:54;;;;;;;7.60;6.00;;;;;;-10253.80;;;;106283;1285;63492;-33
2022/03/14 06:50:23;;;;;;;8.40;6.10;;;;;;-10005.19;;;;106260;1287;64717;-34
2022/03/14 06:52:50;;;;;;;9.50;5.90;;;;;;-10253.80;;;;106218;1287;64761;-46
2022/03/14 06:55:17;;;;;;;8.20;6.00;;;;;;-10129.49;;;;106266;1287;64912;-47
2022/03/14 06:57:44;;;;;;;9.50;6.30;;;;;;-10005.19;;;;106239;1287;64757;-47
2022/03/14 07:00:12;;;;;;;9.20;6.50;;;;;;-10005.19;;;;106257;1287;64890;-47
2022/03/14 07:02:40;;;;;;;9.00;6.20;;;;;;-10129.49;;;;106097;1287;66160;-48
2022/03/14 07:05:13;;;;;;;8.60;6.10;;;;;;-10253.80;;;;106038;1287;64883;-47
2022/03/14 07:07:40;;;;;;;9.80;6.20;;;;;;-10005.19;;;;106276;1287;64779;-47
2022/03/14 07:10:09;;;;;;;10.40;6.80;;;;;;-10253.80;;;;106173;1287;64778;-48
2022/03/14 07:12:44;;;;;;;8.60;6.20;;;;;;-10129.49;;;;106300;1287;64918;-34
2022/03/14 07:15:13;;;;;;;8.80;6.30;;;;;;-10253.80;;;;106296;1286;65786;-34
2022/03/14 07:17:41;;;;;;;9.00;6.10;;;;;;-10129.49;;;;106246;1287;64805;-40
2022/03/14 07:20:11;;;;;;;9.30;6.20;;;;;;-10005.19;;;;106231;1287;64870;-33
2022/03/14 07:22:49;;;;;;;8.40;5.90;;;;;;-10253.80;;;;106223;1287;64928;-46
2022/03/14 07:25:23;;;;;;;7.80;5.90;;;;;;-10378.10;;;;106262;1287;64723;-47
2022/03/14 07:27:55;;;;;;;9.80;6.20;;;;;;-10253.80;;;;106272;1287;65595;-33
2022/03/14 07:30:23;;;;;;;8.60;6.20;;;;;;-10253.80;;;;106210;1287;64876;-33
2022/03/14 07:32:52;;;;;;;8.00;5.80;;;;;;-10253.80;;;;106260;1285;64726;-34
2022/03/14 07:35:20;;;;;;;8.50;5.80;;;;;;-10129.49;;;;106242;1287;64775;-33
2022/03/14 07:37:48;;;;;;;8.40;6.10;;;;;;-10129.49;;;;106280;1287;64902;-35
2022/03/14 07:40:16;;;;;;;8.10;6.20;;;;;;-10253.80;;;;106079;1287;64721;-34
2022/03/14 07:42:46;;;;;;;8.80;5.70;;;;;;-10129.49;;;;105915;1288;64892;-34
2022/03/14 07:45:18;;;;;;;8.60;6.20;;;;;;-10129.49;;;;106064;1287;64893;-34
2022/03/14 07:47:45;;;;;;;8.80;6.50;;;;;;-10129.49;;;;106141;1287;64763;-47
2022/03/14 07:50:15;;;;;;;9.10;6.40;;;;;;-10005.19;;;;106315;1285;64888;-47
2022/03/14 07:52:43;;;;;;;8.60;6.20;;;;;;-10129.49;;;;106246;1287;65835;-51
2022/03/14 07:55:12;;;;;;;8.40;6.10;;;;;;-10253.80;;;;105908;1288;64858;-46
2022/03/14 07:57:39;;;;;;;8.50;6.50;;;;;;-10129.49;;;;106267;1287;64587;-46
2022/03/14 08:00:11;;;;;;;8.00;5.80;;;;;;-10005.19;;;;106315;1286;64881;-47
2022/03/14 08:02:39;;;;;;;8.00;5.90;;;;;;-10129.49;;;;106275;1287;64889;-47
2022/03/14 08:05:09;;;;;;;7.90;6.00;;;;;;-10129.49;;;;106250;1287;64796;-47
2022/03/14 08:07:37;;;;;;;10.50;6.30;;;;;;-10253.80;;;;106287;1287;64889;-47
2022/03/14 08:10:09;;;;;;;8.40;5.50;;;;;;-10129.49;;;;106313;1285;64983;-48
2022/03/14 08:12:52;;;;;;;8.60;5.70;;;;;;-10129.49;;;;106323;1285;64966;-49
2022/03/14 08:15:32;;;;;;;8.50;6.20;;;;;;-10253.80;;;;106310;1285;64870;-47
2022/03/14 08:18:03;;;;;;;8.90;6.30;;;;;;-10253.80;;;;106013;1287;66787;-47
2022/03/14 08:20:32;;;;;;;8.20;6.40;;;;;;-10378.10;;;;106267;1287;64848;-47
2022/03/14 08:23:02;;;;;;;10.40;6.30;;;;;;-10129.49;;;;106039;1287;65009;-47
2022/03/14 08:25:31;;;;;;;8.60;6.30;;;;;;-10005.19;;;;106228;1287;64770;-48
2022/03/14 08:27:58;;;;;;;10.30;6.50;;;;;;-10129.49;;;;106208;1287;65011;-34
2022/03/14 08:30:27;;;;;;;8.50;5.90;;;;;;-10129.49;;;;106108;1286;64821;-31
2022/03/14 08:32:56;;;;;;;8.90;6.40;;;;;;-10129.49;;;;106322;1285;64909;-33
2022/03/14 08:35:24;;;;;;;9.50;6.80;;;;;;-10253.80;;;;106147;1287;64765;-33
2022/03/14 08:37:53;;;;;;;8.50;5.80;;;;;;-10502.40;;;;106229;1287;64916;-47
2022/03/14 08:40:24;;;;;;;8.90;6.50;;;;;;-10129.49;;;;106286;1287;64803;-47
2022/03/14 08:42:54;;;;;;;9.80;6.90;;;;;;-10378.10;;;;106345;1285;64780;-47
2022/03/14 08:45:25;;;;;;;8.70;6.30;;;;;;-10378.10;;;;106319;1285;64904;-47
2022/03/14 08:47:53;;;;;;;9.20;6.60;;;;;;-10129.49;;;;106000;1288;64894;-34
2022/03/14 08:50:21;;;;;;;8.30;6.50;;;;;;-10253.80;;;;106224;1287;64806;-33
2022/03/14 08:52:48;;;;;;;8.60;6.10;;;;;;-10005.19;;;;106265;1288;64808;-49
2022/03/14 08:55:16;;;;;;;8.50;6.50;;;;;;-10378.10;;;;106301;1285;64783;-47
2022/03/14 08:57:43;;;;;;;9.10;6.20;;;;;;-10129.49;;;;105967;1287;65647;-47
2022/03/14 09:00:12;;;;;;;9.90;6.80;;;;;;-10253.80;;;;106051;1287;64840;-48
2022/03/14 09:02:41;;;;;;;8.70;6.50;;;;;;-10253.80;;;;106067;1287;64833;-46
2022/03/14 09:05:08;;;;;;;9.70;7.10;;;;;;-10253.80;;;;106309;1285;64923;-47
2022/03/14 09:07:36;;;;;;;9.70;6.40;;;;;;-10378.10;;;;106233;1287;65187;-37
2022/03/14 09:10:12;;;;;;;10.50;7.00;;;;;;-10005.19;;;;105933;1288;64811;-34
2022/03/14 09:12:42;;;;;;;9.30;7.10;;;;;;-10129.49;;;;106215;1287;64872;-48
2022/03/14 09:15:13;;;;;;;9.70;6.60;;;;;;-10502.40;;;;106106;1287;64795;-47
2022/03/14 09:17:51;;;;;;;9.60;6.70;;;;;;-10253.80;;;;105964;1288;65018;-46
2022/03/14 09:20:19;;;;;;;7.90;6.30;;;;;;-10253.80;;;;106164;1285;66219;-42
2022/03/14 09:22:47;;;;;;;9.20;6.20;;;;;;-10253.80;;;;106234;1287;64644;-32
2022/03/14 09:25:15;;;;;;;9.20;6.40;;;;;;-10129.49;;;;106252;1285;64772;-38
2022/03/14 09:27:43;;;;;;;8.70;6.30;;;;;;-10253.80;;;;106438;1284;64913;-35
2022/03/14 09:30:13;;;;;;;10.10;6.50;;;;;;-10129.49;;;;105935;1288;64952;-43
2022/03/14 09:32:41;;;;;;;10.00;6.30;;;;;;-10378.10;;;;106057;1287;66077;-37
2022/03/14 09:35:11;;;;;;;10.00;6.30;;;;;;-10253.80;;;;106074;1287;64782;-39
2022/03/14 09:37:40;;;;;;;10.50;7.10;;;;;;-10253.80;;;;106316;1285;64869;-39
2022/03/14 09:40:12;;;;;;;9.80;6.70;;;;;;-10253.80;;;;106239;1285;64792;-45
2022/03/14 09:42:43;;;;;;;10.00;6.50;;;;;;-10005.19;;;;106227;1287;64853;-39
2022/03/14 09:45:16;;;;;;;9.10;6.10;;;;;;-10253.80;;;;106306;1285;65894;-35
2022/03/14 09:47:57;;;;;;;10.40;6.70;;;;;;-10378.10;;;;106191;1287;64973;-40
2022/03/14 09:50:35;;;;;;;9.50;6.50;;;;;;-10129.49;;;;106198;1287;64835;-39
2022/03/14 09:53:10;;;;;;;9.60;6.60;;;;;;-10129.49;;;;106233;1285;64896;-41
2022/03/14 09:55:41;;;;;;;9.40;6.40;;;;;;-10378.10;;;;106318;1285;64774;-41
2022/03/14 09:58:16;;;;;;;10.00;6.70;;;;;;-10253.80;;;;106306;1285;64932;-47
2022/03/14 10:00:45;;;;;;;8.40;6.10;;;;;;-10005.19;;;;106317;1285;64801;-45
2022/03/14 10:03:14;;;;;;;11.90;8.50;;;;;;-10378.10;;;;106447;1284;64872;-48
2022/03/14 10:05:42;;;;;;;9.60;7.10;;;;;;-10129.49;;;;106286;1284;64812;-46
2022/03/14 10:08:11;;;;;;;9.60;7.20;;;;;;-10129.49;;;;106322;1285;64768;-44
2022/03/14 10:10:39;;;;;;;9.70;7.30;;;;;;-10129.49;;;;106452;1284;64913;-45
2022/03/14 10:13:10;;;;;;;10.70;7.30;;;;;;-10129.49;;;;106276;1285;64841;-39
2022/03/14 10:15:40;;;;;;;9.30;6.90;;;;;;-10129.49;;;;106253;1285;64792;-38
2022/03/14 10:18:16;;;;;;;8.80;6.30;;;;;;-10378.10;;;;106085;1287;64768;-39
2022/03/14 10:21:06;;;;;;;10.10;6.90;;;;;;-10005.19;;;;106178;1287;64802;-38
2022/03/14 10:23:43;;;;;;;8.50;6.90;;;;;;-10129.49;;;;106196;1286;64816;-50
2022/03/14 10:26:16;;;;;;;9.60;7.30;;;;;;-10253.80;;;;106274;1285;64785;-50
2022/03/14 10:28:50;;;;;;;12.20;7.40;;;;;;-10378.10;;;;105903;1287;64903;-36
2022/03/14 10:31:32;;;;;;;10.70;7.30;;;;;;-10129.49;;;;106015;1288;64780;-37
2022/03/14 10:34:08;;;;;;;9.40;7.00;;;;;;-10129.49;;;;106266;1285;64888;-39
2022/03/14 10:36:45;;;;;;;10.30;7.90;;;;;;-10005.19;;;;105891;1287;65629;-37
2022/03/14 10:39:15;;;;;;;9.80;7.50;;;;;;-10005.19;;;;106152;1287;64811;-39
2022/03/14 10:41:47;;;;;;;11.50;8.30;;;;;;-10378.10;;;;106170;1287;64863;-37
2022/03/14 10:44:24;;;;;;;11.00;7.80;;;;;;-10378.10;;;;106152;1287;66100;-39
2022/03/14 10:46:52;;;;;;;11.70;8.30;;;;;;-10253.80;;;;106177;1287;64788;-36
2022/03/14 10:49:26;;;;;;;10.20;7.40;;;;;;-10129.49;;;;106147;1287;64849;-36
2022/03/14 10:52:10;;;;;;;9.80;7.30;;;;;;-10253.80;;;;106095;1286;65008;-42
2022/03/14 10:54:38;;;;;;;11.00;7.80;;;;;;-10253.80;;;;106139;1287;64804;-44
2022/03/14 10:57:29;;;;;;;11.00;7.80;;;;;;-10378.10;;;;106323;1285;65399;-43
2022/03/14 10:59:58;;;;;;;12.90;7.70;;;;;;-10005.19;;;;106314;1285;64948;-34
2022/03/14 11:02:28;;;;;;;10.40;8.10;;;;;;-10129.49;;;;106307;1285;64808;-42
2022/03/14 11:04:58;;;;;;;10.80;8.00;;;;;;-10253.80;;;;106142;1287;64810;-40
2022/03/14 11:07:28;;;;;;;11.00;8.30;;;;;;-10378.10;;;;106313;1285;66699;-37
2022/03/14 11:09:58;;;;;;;10.10;7.90;;;;;;-10253.80;;;;106305;1285;64840;-36
2022/03/14 11:12:28;;;;;;;10.30;7.70;;;;;;-10253.80;;;;106182;1287;63439;-41
2022/03/14 11:15:09;;;;;;;10.20;8.20;;;;;;-10253.80;;;;106329;1285;64755;-35
2022/03/14 11:17:37;;;;;;;10.20;8.00;;;;;;-10253.80;;;;106293;1285;64774;-36
2022/03/14 11:20:05;;;;;;;11.40;8.10;;;;;;-10005.19;;;;106328;1285;64915;-35
2022/03/14 11:22:32;;;;;;;10.00;7.60;;;;;;-10253.80;;;;106319;1285;64826;-41
2022/03/14 11:25:00;;;;;;;9.30;7.60;;;;;;-10253.80;;;;106339;1285;64918;-44
2022/03/14 11:27:30;;;;;;;9.90;8.10;;;;;;-10253.80;;;;106241;1285;64725;-39
2022/03/14 11:30:10;;;;;;;10.90;8.40;;;;;;-10378.10;;;;106058;1287;64817;-38
2022/03/14 11:32:38;;;;;;;13.10;8.60;;;;;;-10129.49;;;;106086;1287;64823;-38
2022/03/14 11:35:08;;;;;;;12.00;9.90;;;;;;-10378.10;;;;106175;1287;64902;-38
2022/03/14 11:37:35;;;;;;;11.20;8.70;;;;;;-10378.10;;;;105985;1287;64975;-39
2022/03/14 11:40:07;;;;;;;10.30;8.30;;;;;;-10502.40;;;;106060;1287;64859;-37
2022/03/14 11:42:35;;;;;;;11.20;8.70;;;;;;-10253.80;;;;106300;1285;64803;-45
2022/03/14 11:45:03;;;;;;;10.30;8.20;;;;;;-10005.19;;;;106095;1285;64895;-45
2022/03/14 11:47:30;;;;;;;10.90;7.60;;;;;;-10378.10;;;;105919;1286;64899;-38
2022/03/14 11:49:59;;;;;;;10.50;8.30;;;;;;-10502.40;;;;106212;1285;64894;-44
2022/03/14 11:52:40;;;;;;;11.00;8.60;;;;;;-10253.80;;;;105957;1287;64891;-36
2022/03/14 11:55:22;;;;;;;12.40;9.30;;;;;;-10253.80;;;;106276;1285;64744;-45
2022/03/14 11:57:50;;;;;;;10.60;8.00;;;;;;-10129.49;;;;106370;1285;64773;-45
2022/03/14 12:00:27;;;;;;;11.90;7.50;;;;;;-10253.80;;;;106358;1285;65002;-42
2022/03/14 12:02:57;;;;;;;9.90;7.80;;;;;;-10253.80;;;;106332;1285;64917;-44
2022/03/14 12:05:30;;;;;;;11.00;8.30;;;;;;-10129.49;;;;106331;1285;64715;-41
2022/03/14 12:08:07;;;;;;;10.10;7.40;;;;;;-10253.80;;;;106317;1285;64763;-59
2022/03/14 12:10:35;;;;;;;10.90;8.30;;;;;;-10253.80;;;;106243;1287;64870;-42
2022/03/14 12:13:03;;;;;;;10.60;8.50;;;;;;-10129.49;;;;106318;1285;64875;-37
2022/03/14 12:15:39;;;;;;;9.90;7.80;;;;;;-10129.49;;;;105985;1288;64886;-42
2022/03/14 12:18:25;;;;;;;9.60;7.80;;;;;;-10253.80;;;;106160;1287;65625;-41
2022/03/14 12:21:03;;;;;;;10.40;8.00;;;;;;-10129.49;;;;106141;1287;64909;-43
2022/03/14 12:23:33;;;;;;;10.40;8.10;;;;;;-10005.19;;;;105815;1287;64995;-46
2022/03/14 12:26:24;;;;;;;11.90;9.50;;;;;;-10129.49;;;;103842;1287;3034519;-39
2022/03/14 12:28:54;;;;;;;9.70;7.20;;;;;;-10129.49;;;;106099;1286;64905;-43
2022/03/14 12:31:21;;;;;;;9.80;7.70;;;;;;-10253.80;;;;106105;1287;64892;-39
2022/03/14 12:33:50;;;;;;;9.90;8.20;;;;;;-10253.80;;;;106175;1287;64950;-37
2022/03/14 12:36:23;;;;;;;10.40;9.00;;;;;;-10502.40;;;;106088;1287;64832;-39
2022/03/14 12:39:05;;;;;;;;;;;;;;-10005.19;;;;106202;1287;64797;-37
2022/03/14 12:41:34;;;;;;;10.20;8.10;;;;;;-10253.80;;;;106085;1287;64800;-41
2022/03/14 12:44:19;;;;;;;13.70;9.10;;;;;;-10253.80;;;;105850;1288;64298;-41
2022/03/14 12:46:49;;;;;;;10.20;8.30;;;;;;-10005.19;;;;105792;1288;65019;-37
2022/03/14 12:49:38;;;;;;;10.50;8.00;;;;;;-10253.80;;;;105893;1287;64897;-38
2022/03/14 12:52:19;;;;;;;10.70;8.00;;;;;;-10005.19;;;;106080;1287;64891;-47
2022/03/14 12:54:48;;;;;;;10.40;8.60;;;;;;-10378.10;;;;105936;1288;64890;-36
2022/03/14 12:57:17;;;;;;;10.20;8.10;;;;;;-10253.80;;;;106057;1287;63706;-39